Time;durP1;ratioP1;P1;durP2;ratioP2;P2;SDS_P1;SDS_P2;PMS_P1;PMS_P2;Temp;Humidity;BMP_temperature;BMP_pressure;BME280_temperature;BME280_humidity;BME280_pressure;Samples;Min_cycle;Max_cycle;Signal;HPM_P1;HPM_P2
2022/05/25 00:01:04;;;;;;;48.85;35.22;;;15.40;99.90;;;;;;5055825;28;20021;-75
2022/05/25 00:03:32;;;;;;;49.80;34.70;;;15.40;99.90;;;;;;5055949;28;20390;-69
2022/05/25 00:05:58;;;;;;;53.28;36.78;;;15.40;99.90;;;;;;5055693;28;20032;-75
2022/05/25 00:08:24;;;;;;;49.58;34.13;;;15.50;99.90;;;;;;5035887;28;20076;-75
2022/05/25 00:10:50;;;;;;;48.05;35.72;;;15.50;99.90;;;;;;5035684;28;20021;-70
2022/05/25 00:13:16;;;;;;;40.80;30.45;;;15.50;99.90;;;;;;5034271;28;20082;-75
2022/05/25 00:15:41;;;;;;;50.67;35.47;;;15.50;99.90;;;;;;5035201;28;20490;-69
2022/05/25 00:18:07;;;;;;;44.22;32.17;;;15.50;99.90;;;;;;5035750;28;20100;-70
2022/05/25 00:20:34;;;;;;;47.63;33.88;;;15.40;99.90;;;;;;5035459;28;20111;-76
2022/05/25 00:23:00;;;;;;;48.63;33.85;;;15.40;99.90;;;;;;5033983;28;20037;-70
2022/05/25 00:25:30;;;;;;;48.10;34.47;;;15.40;99.90;;;;;;5065256;28;20024;-70
2022/05/25 00:28:12;;;;;;;53.13;37.13;;;15.40;99.90;;;;;;5075433;28;20027;-70
2022/05/25 00:30:40;;;;;;;52.28;36.30;;;15.30;99.90;;;;;;5074120;28;20082;-69
2022/05/25 00:33:06;;;;;;;52.95;35.65;;;15.30;99.90;;;;;;5075198;28;20035;-70
2022/05/25 00:35:35;;;;;;;46.38;33.60;;;15.30;99.90;;;;;;5075204;28;20058;-75
2022/05/25 00:38:02;;;;;;;41.88;31.60;;;15.30;99.90;;;;;;5075198;28;20027;-75
2022/05/25 00:40:36;;;;;;;46.13;33.83;;;15.30;99.90;;;;;;5075304;28;20036;-69
2022/05/25 00:43:02;;;;;;;49.65;32.90;;;15.30;99.90;;;;;;5074995;28;20112;-70
2022/05/25 00:45:39;;;;;;;49.20;34.85;;;15.20;99.90;;;;;;5075228;28;20115;-70
2022/05/25 00:48:07;;;;;;;52.42;35.13;;;15.20;99.90;;;;;;5075017;28;20024;-69
2022/05/25 00:51:11;;;;;;;46.30;34.05;;;15.20;99.90;;;;;;5073712;28;20017;-70
2022/05/25 00:53:19;;;;;;;49.40;36.03;;;15.20;99.90;;;;;;5074520;28;20028;-69
2022/05/25 00:55:45;;;;;;;50.53;35.38;;;15.30;99.90;;;;;;5073631;28;20017;-70
2022/05/25 00:58:11;;;;;;;46.72;35.15;;;15.20;99.90;;;;;;5074715;28;20028;-70
2022/05/25 01:00:37;;;;;;;44.08;33.13;;;15.20;99.90;;;;;;5074420;28;20052;-75
2022/05/25 01:03:10;;;;;;;44.92;33.80;;;15.30;99.90;;;;;;5073201;28;20386;-70
2022/05/25 01:05:43;;;;;;;45.85;31.92;;;15.20;99.90;;;;;;5074629;28;20029;-69
2022/05/25 01:08:34;;;;;;;44.80;32.38;;;15.20;99.90;;;;;;5056228;28;20036;-69
2022/05/25 01:11:12;;;;;;;50.10;35.40;;;15.20;99.90;;;;;;5054533;28;20017;-75
2022/05/25 01:13:56;;;;;;;48.70;34.85;;;15.20;99.90;;;;;;5054496;28;20100;-76
2022/05/25 01:16:49;;;;;;;45.38;34.08;;;15.20;99.90;;;;;;5054429;28;20029;-75
2022/05/25 01:19:43;;;;;;;49.03;34.97;;;15.20;99.90;;;;;;5052925;28;20083;-69
2022/05/25 01:22:38;;;;;;;52.42;34.47;;;15.10;99.90;;;;;;5054238;28;20029;-76
2022/05/25 01:25:28;;;;;;;45.28;32.85;;;15.10;99.90;;;;;;5066587;28;20129;-69
2022/05/25 01:27:56;;;;;;;44.85;32.72;;;15.10;99.90;;;;;;5074288;28;20052;-69
2022/05/25 01:30:35;;;;;;;48.25;34.28;;;15.10;99.90;;;;;;5072805;28;20021;-70
2022/05/25 01:33:20;;;;;;;45.85;32.78;;;15.10;99.90;;;;;;5072895;28;20033;-76
2022/05/25 01:36:12;;;;;;;45.05;32.28;;;15.00;99.90;;;;;;5074152;28;20062;-75
2022/05/25 01:38:58;;;;;;;47.40;33.25;;;15.10;99.90;;;;;;5074001;28;20024;-69
2022/05/25 01:41:32;;;;;;;45.88;32.28;;;15.00;99.90;;;;;;5074074;28;20059;-75
2022/05/25 01:44:04;;;;;;;48.28;32.03;;;15.10;99.90;;;;;;5074062;28;20051;-69
2022/05/25 01:46:39;;;;;;;41.67;31.23;;;15.00;99.90;;;;;;5072602;28;20070;-69
2022/05/25 01:49:10;;;;;;;44.45;32.88;;;15.00;99.90;;;;;;5072491;28;20090;-76
2022/05/25 01:51:41;;;;;;;51.33;35.60;;;15.00;99.90;;;;;;5073916;28;20031;-69
2022/05/25 01:54:11;;;;;;;52.90;36.97;;;14.90;99.90;;;;;;5072267;28;20052;-75
2022/05/25 01:56:40;;;;;;;44.92;32.42;;;14.90;99.90;;;;;;5072418;28;20050;-76
2022/05/25 01:59:08;;;;;;;44.85;32.92;;;14.80;99.90;;;;;;5073514;28;20021;-76
2022/05/25 02:01:34;;;;;;;48.08;34.58;;;14.80;99.90;;;;;;5073659;28;20016;-75
2022/05/25 02:07:05;;;;;;;48.30;33.72;;;14.80;99.90;;;;;;5066715;28;20056;-71
2022/05/25 02:09:56;;;;;;;48.90;34.33;;;14.80;99.90;;;;;;5051974;28;20112;-69
2022/05/25 02:12:34;;;;;;;51.63;36.85;;;14.70;99.90;;;;;;5051620;28;20057;-69
2022/05/25 02:15:05;;;;;;;47.88;32.88;;;14.70;99.90;;;;;;5053454;28;20104;-69
2022/05/25 02:17:55;;;;;;;46.83;34.35;;;14.60;99.90;;;;;;5053633;28;20027;-74
2022/05/25 02:20:33;;;;;;;46.45;32.55;;;14.60;99.90;;;;;;5053354;28;20060;-69
2022/05/25 02:23:18;;;;;;;45.35;33.47;;;14.60;99.90;;;;;;5051362;28;20025;-70
2022/05/25 02:25:56;;;;;;;47.25;35.00;;;14.60;99.90;;;;;;5069686;28;20016;-70
2022/05/25 02:28:34;;;;;;;44.22;32.75;;;14.70;99.90;;;;;;5073275;28;20042;-69
2022/05/25 02:31:04;;;;;;;43.60;32.28;;;14.70;99.90;;;;;;5073405;28;20066;-76
2022/05/25 02:33:43;;;;;;;43.00;31.85;;;14.70;99.90;;;;;;5073341;28;20103;-69
2022/05/25 02:36:11;;;;;;;48.65;33.47;;;14.70;99.90;;;;;;5072120;28;20017;-75
2022/05/25 02:38:41;;;;;;;43.67;32.65;;;14.70;99.90;;;;;;5073289;28;20031;-70
2022/05/25 02:41:33;;;;;;;44.58;32.45;;;14.70;99.90;;;;;;5073294;28;20021;-69
2022/05/25 02:44:00;;;;;;;40.67;30.58;;;14.70;99.90;;;;;;5072679;28;20058;-69
2022/05/25 02:46:26;;;;;;;43.17;31.33;;;14.70;99.90;;;;;;5071979;28;20493;-75
2022/05/25 02:48:52;;;;;;;39.60;30.17;;;14.70;99.90;;;;;;5071781;28;20021;-74
2022/05/25 02:51:17;;;;;;;43.03;31.25;;;14.70;99.90;;;;;;5073067;28;20050;-69
2022/05/25 02:53:43;;;;;;;42.53;31.98;;;14.70;99.90;;;;;;5071706;28;20070;-75
2022/05/25 02:56:09;;;;;;;44.20;32.92;;;14.70;99.90;;;;;;5073090;28;20028;-69
2022/05/25 02:58:34;;;;;;;46.53;32.97;;;14.80;99.90;;;;;;5072975;28;20017;-70
2022/05/25 03:01:00;;;;;;;48.83;33.83;;;14.80;99.90;;;;;;5073072;28;20447;-75
2022/05/25 03:03:26;;;;;;;44.67;32.17;;;14.80;99.90;;;;;;5072957;28;20493;-69
2022/05/25 03:05:52;;;;;;;49.97;33.65;;;14.80;99.90;;;;;;5071410;28;20017;-75
2022/05/25 03:08:18;;;;;;;43.83;33.67;;;14.80;99.90;;;;;;5052936;28;20037;-76
2022/05/25 03:10:43;;;;;;;49.65;36.53;;;14.80;99.90;;;;;;5052762;28;20021;-75
2022/05/25 03:13:10;;;;;;;54.53;37.90;;;14.80;99.90;;;;;;5052875;28;20493;-75
2022/05/25 03:15:36;;;;;;;49.88;33.78;;;14.80;99.90;;;;;;5052706;28;20079;-75
2022/05/25 03:18:02;;;;;;;55.10;38.83;;;14.80;99.90;;;;;;5052697;28;20053;-75
2022/05/25 03:20:29;;;;;;;57.13;38.50;;;14.80;99.90;;;;;;5051518;28;20446;-75
2022/05/25 03:22:55;;;;;;;48.67;35.78;;;14.80;99.90;;;;;;5051963;28;20052;-75
2022/05/25 03:25:21;;;;;;;44.53;34.20;;;14.80;99.90;;;;;;5070134;28;20036;-75
2022/05/25 03:27:46;;;;;;;47.17;33.70;;;14.80;99.90;;;;;;5076559;28;20020;-76
2022/05/25 03:30:13;;;;;;;54.17;36.28;;;14.90;99.90;;;;;;5068728;28;20029;-76
2022/05/25 03:32:39;;;;;;;51.83;36.03;;;14.90;99.90;;;;;;5056394;28;20083;-70
2022/05/25 03:35:06;;;;;;;132.38;58.38;;;14.90;99.90;;;;;;5056397;28;20025;-70
2022/05/25 03:37:32;;;;;;;77.97;43.17;;;14.90;99.90;;;;;;5056509;28;20021;-75
2022/05/25 03:39:58;;;;;;;52.65;33.80;;;14.90;99.90;;;;;;5056059;28;20025;-75
2022/05/25 03:42:24;;;;;;;53.60;36.65;;;14.90;99.90;;;;;;5056356;28;20021;-69
2022/05/25 03:44:50;;;;;;;48.22;36.70;;;15.00;99.90;;;;;;5054739;28;20032;-70
2022/05/25 03:47:16;;;;;;;53.60;36.83;;;15.00;99.90;;;;;;5056294;28;20029;-75
2022/05/25 03:49:42;;;;;;;52.95;34.58;;;15.10;99.90;;;;;;5056103;28;20021;-70
2022/05/25 03:52:07;;;;;;;54.35;36.78;;;15.10;99.90;;;;;;5054760;28;20463;-76
2022/05/25 03:54:36;;;;;;;51.50;35.22;;;15.20;99.90;;;;;;5055978;28;20021;-76
2022/05/25 03:57:02;;;;;;;49.60;34.30;;;15.30;99.90;;;;;;5036893;28;20036;-69
2022/05/25 03:59:28;;;;;;;48.95;33.55;;;15.30;99.90;;;;;;5034741;28;20394;-75
2022/05/25 04:01:53;;;;;;;52.08;35.45;;;15.30;99.90;;;;;;5035991;28;20028;-75
2022/05/25 04:04:19;;;;;;;51.28;36.53;;;15.30;99.90;;;;;;5035661;28;20045;-70
2022/05/25 04:06:44;;;;;;;51.90;38.00;;;15.40;99.90;;;;;;5043525;28;20021;-69
2022/05/25 04:09:10;;;;;;;53.08;39.03;;;15.40;99.90;;;;;;5055764;28;20036;-71
2022/05/25 04:11:37;;;;;;;59.63;40.58;;;15.40;99.90;;;;;;5055652;28;20029;-69
2022/05/25 04:14:03;;;;;;;54.08;38.35;;;15.40;99.90;;;;;;5054374;28;20104;-69
2022/05/25 04:16:30;;;;;;;55.13;39.08;;;15.40;99.90;;;;;;5055698;28;20429;-75
2022/05/25 04:18:55;;;;;;;52.85;39.47;;;15.40;99.90;;;;;;5054307;28;20395;-70
2022/05/25 04:21:21;;;;;;;50.33;38.42;;;15.40;99.90;;;;;;5054072;28;20049;-69
2022/05/25 04:23:46;;;;;;;56.83;39.70;;;15.40;99.90;;;;;;5055226;28;20029;-75
2022/05/25 04:26:12;;;;;;;56.33;40.60;;;15.40;99.90;;;;;;5054907;28;20079;-75
2022/05/25 04:28:38;;;;;;;55.28;38.78;;;15.40;99.90;;;;;;5054252;28;20075;-69
2022/05/25 04:31:04;;;;;;;58.05;42.53;;;15.40;99.90;;;;;;5053981;28;20025;-69
2022/05/25 04:33:30;;;;;;;57.63;41.53;;;15.40;99.90;;;;;;5055409;28;20015;-70
2022/05/25 04:35:57;;;;;;;57.25;40.75;;;15.40;99.90;;;;;;5054650;28;20040;-69
2022/05/25 04:38:23;;;;;;;56.53;42.15;;;15.30;99.90;;;;;;5055250;28;20025;-75
2022/05/25 04:40:49;;;;;;;58.33;40.95;;;15.40;99.90;;;;;;5055046;28;20025;-70
2022/05/25 04:43:21;;;;;;;58.58;41.20;;;15.40;99.90;;;;;;5054935;28;20471;-76
2022/05/25 04:45:49;;;;;;;58.53;41.47;;;15.40;99.90;;;;;;5053831;28;20021;-75
2022/05/25 04:48:16;;;;;;;56.38;40.97;;;15.50;99.90;;;;;;5055003;28;20263;-69
2022/05/25 04:50:44;;;;;;;59.05;41.45;;;15.60;99.90;;;;;;5055040;28;20024;-75
2022/05/25 04:53:13;;;;;;;57.65;42.40;;;15.60;99.90;;;;;;5038461;28;20033;-69
2022/05/25 04:58:24;;;;;;;55.67;41.20;;;15.80;99.90;;;;;;5035280;28;20079;-69
2022/05/25 05:00:51;;;;;;;59.28;43.90;;;15.90;99.90;;;;;;5034652;28;20025;-69
2022/05/25 05:03:17;;;;;;;60.38;41.95;;;15.90;99.90;;;;;;5034840;28;20018;-70
2022/05/25 05:05:44;;;;;;;53.15;40.80;;;16.00;99.90;;;;;;5034709;28;20064;-75
2022/05/25 05:08:09;;;;;;;60.88;41.88;;;16.00;99.90;;;;;;5054153;28;20032;-75
2022/05/25 05:10:35;;;;;;;56.95;41.72;;;16.10;99.90;;;;;;5054649;28;20033;-75
2022/05/25 05:13:04;;;;;;;53.13;38.08;;;16.10;99.90;;;;;;5054399;28;20103;-76
2022/05/25 05:15:32;;;;;;;53.88;40.58;;;16.20;99.90;;;;;;5043340;28;20021;-75
2022/05/25 05:17:57;;;;;;;45.17;33.88;;;16.30;99.90;;;;;;5042684;28;20475;-75
2022/05/25 05:20:23;;;;;;;49.45;37.15;;;16.40;99.90;;;;;;5041029;28;20080;-76
2022/05/25 05:22:49;;;;;;;48.40;35.78;;;16.40;99.90;;;;;;5044363;28;20055;-76
2022/05/25 05:25:14;;;;;;;48.67;35.80;;;16.50;99.90;;;;;;5043592;28;20029;-69
2022/05/25 05:27:40;;;;;;;57.95;39.70;;;16.60;99.90;;;;;;5032905;28;20053;-76
2022/05/25 05:30:07;;;;;;;47.50;35.33;;;16.70;99.90;;;;;;5034129;28;20025;-76
2022/05/25 05:32:35;;;;;;;54.60;38.25;;;16.60;99.90;;;;;;5034065;28;20434;-76
2022/05/25 05:35:01;;;;;;;47.70;35.38;;;16.70;99.90;;;;;;5034070;28;20026;-76
2022/05/25 05:37:32;;;;;;;46.53;33.60;;;16.70;99.90;;;;;;5033890;28;20104;-70
2022/05/25 05:39:58;;;;;;;41.33;30.98;;;16.70;99.90;;;;;;5033932;28;20028;-70
2022/05/25 05:42:25;;;;;;;39.17;28.75;;;16.70;99.90;;;;;;5032384;28;20025;-69
2022/05/25 05:44:56;;;;;;;36.25;26.80;;;16.80;99.90;;;;;;5032538;28;20044;-70
2022/05/25 05:47:26;;;;;;;30.77;24.77;;;16.70;99.90;;;;;;5032992;28;20464;-76
2022/05/25 05:49:52;;;;;;;33.75;26.15;;;16.70;99.90;;;;;;5043431;28;20017;-70
2022/05/25 05:52:18;;;;;;;32.42;26.40;;;16.80;99.90;;;;;;5052200;28;20032;-70
2022/05/25 05:54:44;;;;;;;30.65;24.90;;;16.90;99.90;;;;;;5053692;28;20036;-70
2022/05/25 05:57:11;;;;;;;30.40;24.27;;;16.80;99.90;;;;;;5052833;28;20070;-75
2022/05/25 05:59:38;;;;;;;30.05;22.45;;;16.90;99.90;;;;;;5049728;28;20040;-75
2022/05/25 06:02:04;;;;;;;27.50;20.92;;;16.90;99.90;;;;;;5051190;28;20382;-69
2022/05/25 06:04:30;;;;;;;26.92;22.73;;;16.90;99.90;;;;;;5051237;28;20048;-70
2022/05/25 06:06:55;;;;;;;24.80;20.13;;;16.90;99.90;;;;;;5051035;28;20429;-69
2022/05/25 06:09:21;;;;;;;32.80;25.33;;;16.90;99.90;;;;;;5051053;28;20017;-75
2022/05/25 06:11:47;;;;;;;31.90;26.25;;;16.90;99.90;;;;;;5051314;28;20390;-76
2022/05/25 06:14:12;;;;;;;36.28;26.23;;;16.90;99.90;;;;;;5050054;28;20021;-76
2022/05/25 06:19:25;;;;;;;33.38;28.15;;;16.90;99.90;;;;;;5050594;28;20171;-69
2022/05/25 06:21:56;;;;;;;37.15;29.08;;;16.90;99.90;;;;;;5052294;28;20051;-76
2022/05/25 06:24:21;;;;;;;36.72;27.75;;;16.90;99.90;;;;;;5060168;28;20139;-75
2022/05/25 06:26:47;;;;;;;35.67;26.77;;;16.80;99.90;;;;;;5073236;28;20485;-69
2022/05/25 06:29:16;;;;;;;37.55;28.60;;;16.80;99.90;;;;;;5073564;28;20048;-70
2022/05/25 06:31:42;;;;;;;41.50;28.25;;;16.90;99.90;;;;;;5072108;28;20028;-75
2022/05/25 06:34:07;;;;;;;42.75;31.52;;;16.80;99.90;;;;;;5072187;28;20413;-76
2022/05/25 06:36:33;;;;;;;40.97;30.10;;;16.80;99.90;;;;;;5073192;28;20394;-69
2022/05/25 06:38:59;;;;;;;39.13;30.27;;;16.80;99.90;;;;;;5066960;28;20497;-70
2022/05/25 06:41:24;;;;;;;40.88;28.50;;;16.70;99.90;;;;;;5052163;28;20036;-70
2022/05/25 06:43:50;;;;;;;39.13;31.40;;;16.70;99.90;;;;;;5052067;28;20048;-71
2022/05/25 06:46:19;;;;;;;42.67;31.33;;;16.70;99.90;;;;;;5052173;28;20027;-75
2022/05/25 06:48:48;;;;;;;42.53;33.00;;;16.70;99.90;;;;;;5052241;28;20025;-70
2022/05/25 06:51:26;;;;;;;38.13;29.23;;;16.60;99.90;;;;;;5051703;28;20029;-70
2022/05/25 06:53:51;;;;;;;41.35;32.72;;;16.60;99.90;;;;;;5052971;28;20478;-75
2022/05/25 06:56:18;;;;;;;39.15;31.58;;;16.60;99.90;;;;;;5052948;28;20108;-74
2022/05/25 06:58:44;;;;;;;44.95;33.03;;;16.60;99.90;;;;;;5054740;28;20021;-75
2022/05/25 07:01:10;;;;;;;45.00;33.45;;;16.50;99.90;;;;;;5057055;28;20039;-70
2022/05/25 07:03:36;;;;;;;42.83;31.42;;;16.50;99.90;;;;;;5056938;28;20047;-74
2022/05/25 07:06:06;;;;;;;37.85;30.85;;;16.40;99.90;;;;;;5057071;28;20028;-70
2022/05/25 07:08:32;;;;;;;40.80;31.25;;;16.40;99.90;;;;;;5055833;28;20032;-70
2022/05/25 07:11:00;;;;;;;39.90;30.10;;;16.50;99.90;;;;;;5057093;28;20060;-74
2022/05/25 07:13:26;;;;;;;41.38;32.58;;;16.60;99.90;;;;;;5054466;28;20581;-73
2022/05/25 07:16:01;;;;;;;41.58;32.22;;;16.60;99.90;;;;;;5053608;28;20014;-71
2022/05/25 07:18:28;;;;;;;41.22;33.45;;;16.70;99.90;;;;;;5054780;28;20017;-70
2022/05/25 07:20:58;;;;;;;44.25;33.63;;;16.70;99.90;;;;;;5053615;28;20053;-73
2022/05/25 07:23:24;;;;;;;39.50;32.20;;;16.80;99.90;;;;;;5055051;28;20043;-73
2022/05/25 07:25:49;;;;;;;40.30;29.92;;;16.80;99.90;;;;;;5073385;28;20028;-74
2022/05/25 07:28:15;;;;;;;34.58;27.73;;;16.80;99.90;;;;;;5074060;28;20394;-71
2022/05/25 07:30:41;;;;;;;34.17;26.75;;;16.80;99.90;;;;;;5076604;28;20024;-74
2022/05/25 07:33:07;;;;;;;27.65;23.67;;;16.80;99.90;;;;;;5075349;28;20437;-74
2022/05/25 07:35:32;;;;;;;33.15;25.58;;;16.80;99.90;;;;;;5076590;28;20017;-74
2022/05/25 07:37:58;;;;;;;29.50;22.50;;;16.80;99.90;;;;;;5075237;28;20036;-74
2022/05/25 07:40:33;;;;;;;31.65;23.58;;;16.80;99.90;;;;;;5075249;28;20055;-71
2022/05/25 07:43:07;;;;;;;28.55;22.60;;;16.90;99.90;;;;;;5075131;28;20032;-74
2022/05/25 07:45:35;;;;;;;28.13;22.58;;;16.90;99.90;;;;;;5076382;28;20114;-74
2022/05/25 07:48:01;;;;;;;23.73;19.13;;;16.90;99.90;;;;;;5076334;28;20597;-71
2022/05/25 07:50:27;;;;;;;46.85;27.23;;;17.00;99.90;;;;;;5076454;28;20032;-74
2022/05/25 07:52:57;;;;;;;33.92;29.30;;;17.00;99.90;;;;;;5076022;28;20036;-74
2022/05/25 07:55:22;;;;;;;34.22;24.63;;;17.00;99.90;;;;;;5076324;28;20028;-70
2022/05/25 07:57:48;;;;;;;30.15;25.23;;;17.00;99.90;;;;;;5076158;28;20100;-70
2022/05/25 08:00:15;;;;;;;31.02;24.10;;;17.00;99.90;;;;;;5076109;28;20027;-74
2022/05/25 08:05:43;;;;;;;30.83;23.80;;;16.90;99.90;;;;;;5076106;28;20090;-74
2022/05/25 08:08:12;;;;;;;34.58;26.23;;;16.90;99.90;;;;;;5036116;28;20021;-74
2022/05/25 08:10:38;;;;;;;39.60;27.17;;;16.80;99.90;;;;;;5035009;28;20025;-71
2022/05/25 08:13:05;;;;;;;39.97;29.55;;;16.80;99.90;;;;;;5035761;28;20060;-74
2022/05/25 08:15:33;;;;;;;39.72;29.38;;;16.70;99.90;;;;;;5036063;28;20029;-72
2022/05/25 08:17:59;;;;;;;38.78;27.55;;;16.70;99.90;;;;;;5034551;28;20383;-73
2022/05/25 08:20:25;;;;;;;36.00;28.42;;;16.60;99.90;;;;;;5034564;28;20052;-74
2022/05/25 08:22:51;;;;;;;46.10;31.40;;;16.60;99.90;;;;;;5035608;28;20030;-74
2022/05/25 08:25:19;;;;;;;39.58;28.75;;;16.50;99.90;;;;;;5068276;28;20040;-73
2022/05/25 08:27:45;;;;;;;48.20;32.60;;;16.40;99.90;;;;;;5075607;28;20024;-73
2022/05/25 08:30:14;;;;;;;42.00;31.42;;;16.20;99.90;;;;;;5075738;28;20024;-71
2022/05/25 08:32:40;;;;;;;40.13;30.83;;;16.10;99.90;;;;;;5073972;28;20021;-74
2022/05/25 08:35:06;;;;;;;53.30;34.17;;;15.90;99.90;;;;;;5075498;28;20066;-74
2022/05/25 08:37:32;;;;;;;44.78;32.17;;;15.80;99.90;;;;;;5075434;28;20484;-73
2022/05/25 08:39:57;;;;;;;32.45;24.48;;;15.70;99.90;;;;;;5074228;28;20017;-71
2022/05/25 08:42:27;;;;;;;38.75;29.10;;;15.70;99.90;;;;;;5075454;28;20024;-71
2022/05/25 08:44:54;;;;;;;42.72;31.95;;;15.80;99.90;;;;;;5073776;28;20504;-74
2022/05/25 08:47:20;;;;;;;38.88;31.88;;;15.80;99.90;;;;;;5073982;28;20027;-71
2022/05/25 08:49:48;;;;;;;42.25;31.63;;;15.80;99.90;;;;;;5075122;28;20389;-74
2022/05/25 08:52:29;;;;;;;45.47;31.48;;;15.80;99.90;;;;;;5075233;28;20025;-73
2022/05/25 08:54:55;;;;;;;42.67;31.15;;;15.90;99.90;;;;;;5073823;28;20448;-71
2022/05/25 08:57:25;;;;;;;35.65;29.05;;;16.00;99.90;;;;;;5075045;28;20020;-71
2022/05/25 09:00:09;;;;;;;38.78;29.90;;;16.00;99.90;;;;;;5074978;28;20422;-74
2022/05/25 09:03:03;;;;;;;35.38;27.05;;;16.00;99.90;;;;;;5075100;28;20060;-71
2022/05/25 09:05:38;;;;;;;17.67;14.30;;;16.00;99.90;;;;;;5073733;28;20042;-70
2022/05/25 09:08:31;;;;;;;7.25;6.55;;;15.70;99.90;;;;;;5033553;28;20021;-74
2022/05/25 09:11:04;;;;;;;6.10;5.57;;;15.10;99.90;;;;;;5034821;28;20026;-73
2022/05/25 09:13:34;;;;;;;9.57;6.75;;;14.70;99.90;;;;;;5034918;28;20022;-73
2022/05/25 09:16:22;;;;;;;10.40;7.65;;;14.40;99.90;;;;;;5033470;28;20100;-73
2022/05/25 09:19:00;;;;;;;9.70;7.53;;;14.40;99.90;;;;;;5034757;28;20073;-70
2022/05/25 09:21:33;;;;;;;12.55;8.23;;;14.30;99.90;;;;;;5033331;28;20042;-70
2022/05/25 09:24:03;;;;;;;7.97;7.15;;;14.10;99.90;;;;;;5044921;28;20036;-72
2022/05/25 09:26:29;;;;;;;9.88;7.03;;;13.70;99.90;;;;;;5074796;28;20425;-73
2022/05/25 09:29:00;;;;;;;6.78;6.00;;;13.50;99.90;;;;;;5074445;28;20048;-74
2022/05/25 09:31:31;;;;;;;6.55;5.88;;;13.40;99.90;;;;;;5074403;28;20029;-73
2022/05/25 09:34:03;;;;;;;8.77;5.78;;;13.40;99.90;;;;;;5074300;28;20037;-73
2022/05/25 09:36:40;;;;;;;14.75;6.55;;;13.40;99.90;;;;;;5073192;28;20473;-70
2022/05/25 09:39:14;;;;;;;10.50;6.40;;;13.30;99.90;;;;;;5072999;28;20035;-73
2022/05/25 09:41:43;;;;;;;7.30;3.97;;;13.20;99.90;;;;;;5034278;28;20079;-70
2022/05/25 09:44:12;;;;;;;7.28;4.63;;;12.90;99.90;;;;;;5034137;28;20552;-70
2022/05/25 09:46:42;;;;;;;9.82;4.10;;;12.90;99.90;;;;;;5032968;28;20596;-70
2022/05/25 09:49:12;;;;;;;6.45;4.00;;;12.70;99.90;;;;;;5033566;28;20032;-70
2022/05/25 09:51:50;;;;;;;5.32;4.15;;;12.50;99.90;;;;;;5034040;28;20021;-73
2022/05/25 09:54:25;;;;;;;6.45;3.78;;;12.60;99.90;;;;;;5034052;28;20021;-73
2022/05/25 09:57:02;;;;;;;5.80;4.35;;;12.50;99.90;;;;;;5034075;28;20029;-73
2022/05/25 09:59:37;;;;;;;5.32;4.80;;;12.40;99.90;;;;;;5034043;28;20033;-70
2022/05/25 10:02:25;;;;;;;5.32;4.40;;;12.40;99.90;;;;;;5034119;28;20508;-70
2022/05/25 10:04:52;;;;;;;6.10;4.10;;;12.30;99.90;;;;;;5033789;28;20078;-70
2022/05/25 10:07:35;;;;;;;5.75;3.97;;;12.30;99.90;;;;;;5047702;28;20024;-70
2022/05/25 10:10:06;;;;;;;9.25;4.93;;;12.30;99.90;;;;;;5053890;28;20029;-73
2022/05/25 10:12:33;;;;;;;10.88;5.60;;;12.10;99.90;;;;;;5053736;28;20472;-73
2022/05/25 10:15:07;;;;;;;7.47;4.63;;;12.00;99.90;;;;;;5053628;28;20029;-73
2022/05/25 10:17:39;;;;;;;7.35;5.28;;;12.10;99.90;;;;;;5053747;28;20100;-73
2022/05/25 10:20:43;;;;;;;4.55;4.03;;;12.10;99.90;;;;;;5053520;28;20052;-73
2022/05/25 10:23:20;;;;;;;5.53;4.50;;;12.20;99.90;;;;;;5053621;28;20102;-73
2022/05/25 10:25:53;;;;;;;6.38;4.45;;;12.20;99.90;;;;;;5048931;28;20057;-73
2022/05/25 10:28:24;;;;;;;;;;;12.20;99.90;;;;;;5032732;28;20056;-73
2022/05/25 10:37:14;;;;;;;7.75;5.22;;;12.20;99.90;;;;;;5033752;28;20080;-73
2022/05/25 10:39:45;;;;;;;5.18;4.57;;;12.10;99.90;;;;;;5048787;28;20033;-70
2022/05/25 10:42:22;;;;;;;6.40;4.65;;;12.20;99.90;;;;;;5033542;28;20387;-70
2022/05/25 10:44:55;;;;;;;5.80;3.78;;;12.30;99.90;;;;;;5033434;28;20047;-70
2022/05/25 10:47:47;;;;;;;5.95;4.25;;;12.20;99.90;;;;;;5033360;28;20437;-73
2022/05/25 10:50:43;;;;;;;5.43;4.38;;;12.20;99.90;;;;;;5033374;28;20104;-73
2022/05/25 10:53:27;;;;;;;6.65;5.30;;;12.10;99.90;;;;;;5033397;28;20036;-73
2022/05/25 10:56:04;;;;;;;6.63;5.10;;;12.10;99.90;;;;;;5033224;28;20087;-70
2022/05/25 10:58:52;;;;;;;6.85;4.43;;;12.10;99.90;;;;;;5033417;28;20442;-73
2022/05/25 11:01:48;;;;;;;7.97;5.10;;;12.10;99.90;;;;;;5031999;28;20048;-70
2022/05/25 11:04:34;;;;;;;4.90;4.38;;;12.20;99.90;;;;;;5033169;28;20033;-70
2022/05/25 11:07:15;;;;;;;6.38;4.57;;;12.10;99.90;;;;;;5043840;28;20442;-72
2022/05/25 11:10:01;;;;;;;6.57;4.70;;;12.20;99.90;;;;;;5053233;28;20379;-73
2022/05/25 11:12:55;;;;;;;9.32;6.28;;;12.20;99.90;;;;;;5053179;28;20021;-72
2022/05/25 11:15:47;;;;;;;11.43;8.40;;;12.30;99.90;;;;;;5053133;28;20021;-73
2022/05/25 11:18:26;;;;;;;6.85;6.07;;;12.40;99.90;;;;;;5053204;28;20405;-73
2022/05/25 11:21:00;;;;;;;7.85;5.43;;;12.40;99.90;;;;;;5051546;28;20510;-73
2022/05/25 11:23:37;;;;;;;7.22;6.43;;;12.40;99.90;;;;;;5052819;28;20109;-70
2022/05/25 11:26:23;;;;;;;6.88;6.15;;;12.60;99.90;;;;;;5052861;28;20017;-73
2022/05/25 11:29:18;;;;;;;6.75;6.03;;;12.60;99.90;;;;;;5052961;28;20086;-70
2022/05/25 11:31:51;;;;;;;6.88;6.18;;;12.70;99.90;;;;;;5052903;28;20024;-71
2022/05/25 11:34:36;;;;;;;;;;;12.60;99.90;;;;;;5052133;28;20394;-70
2022/05/25 11:37:14;;;;;;;6.50;5.85;;;12.50;99.90;;;;;;5052928;28;19911;-70
2022/05/25 11:39:55;;;;;;;5.97;5.40;;;12.30;99.90;;;;;;5052897;28;20034;-70
2022/05/25 11:43:06;;;;;;;8.63;7.65;;;12.30;99.90;;;;;;5052688;28;20025;-70
2022/05/25 11:45:48;;;;;;;7.78;7.05;;;12.40;99.90;;;;;;5055650;28;20068;-70
2022/05/25 11:48:34;;;;;;;6.45;5.85;;;12.60;99.90;;;;;;5056956;28;20108;-70
2022/05/25 11:51:08;;;;;;;4.35;3.95;;;12.70;99.90;;;;;;5056312;28;20017;-73
2022/05/25 11:53:58;;;;;;;4.30;3.90;;;12.50;99.90;;;;;;5055091;28;20021;-70
2022/05/25 11:56:49;;;;;;;4.95;3.70;;;12.40;99.90;;;;;;5056187;28;20020;-71
2022/05/25 11:59:44;;;;;;;5.78;4.38;;;12.50;99.90;;;;;;5056386;28;20021;-73
2022/05/25 12:02:27;;;;;;;3.42;3.22;;;12.40;99.90;;;;;;5056036;28;20441;-73
2022/05/25 12:05:01;;;;;;;5.35;4.63;;;12.50;99.90;;;;;;5056117;28;20498;-73
2022/05/25 12:08:03;;;;;;;4.72;4.15;;;12.50;99.90;;;;;;5055996;28;20021;-73
2022/05/25 12:10:33;;;;;;;3.95;3.17;;;12.40;99.90;;;;;;5054987;28;20417;-69
2022/05/25 12:13:15;;;;;;;3.38;2.88;;;12.50;99.90;;;;;;5055920;28;20029;-71
2022/05/25 12:15:44;;;;;;;3.90;3.20;;;12.40;99.90;;;;;;5054708;28;20025;-70
2022/05/25 12:18:24;;;;;;;2.50;2.30;;;12.30;99.90;;;;;;5054595;28;20028;-70
2022/05/25 12:21:04;;;;;;;2.80;2.60;;;12.20;99.90;;;;;;5054663;28;20057;-73
2022/05/25 12:23:35;;;;;;;6.32;4.20;;;12.20;99.90;;;;;;5055603;28;20039;-73
2022/05/25 12:26:05;;;;;;;4.90;3.03;;;12.20;99.90;;;;;;5054374;28;20021;-73
2022/05/25 12:28:38;;;;;;;5.25;3.25;;;12.20;99.90;;;;;;5055797;28;20531;-73
2022/05/25 12:31:12;;;;;;;4.05;3.55;;;12.20;99.90;;;;;;5055684;28;20028;-70
2022/05/25 12:33:38;;;;;;;6.00;4.40;;;12.20;99.90;;;;;;5054435;28;20060;-69
2022/05/25 12:36:08;;;;;;;6.38;4.35;;;12.20;99.90;;;;;;5055632;28;20036;-73
2022/05/25 12:38:35;;;;;;;6.05;4.88;;;12.30;99.90;;;;;;5055515;28;20386;-73
2022/05/25 12:41:26;;;;;;;6.32;4.90;;;12.30;99.90;;;;;;5055385;28;20030;-70
2022/05/25 12:43:58;;;;;;;6.30;4.68;;;12.30;99.90;;;;;;5055269;28;20159;-70
2022/05/25 12:49:40;;;;;;;4.53;3.28;;;12.00;99.90;;;;;;5055568;28;20079;-70
2022/05/25 12:52:27;;;;;;;3.63;3.33;;;12.00;99.90;;;;;;5055048;28;20383;-70
2022/05/25 12:55:16;;;;;;;3.28;3.03;;;12.00;99.90;;;;;;5055084;28;20057;-73
2022/05/25 12:57:52;;;;;;;4.13;2.80;;;12.10;99.90;;;;;;5054587;28;20021;-70
2022/05/25 13:00:31;;;;;;;2.67;2.30;;;11.90;99.90;;;;;;5055186;28;20377;-70
2022/05/25 13:03:32;;;;;;;3.55;2.35;;;11.90;99.90;;;;;;5055056;28;20417;-70
2022/05/25 13:05:59;;;;;;;2.40;2.03;;;11.90;99.90;;;;;;5054989;28;20041;-73
2022/05/25 13:08:49;;;;;;;3.00;1.85;;;12.00;99.90;;;;;;5054834;28;20017;-73
2022/05/25 13:11:46;;;;;;;5.93;3.40;;;11.90;99.90;;;;;;5053610;28;20032;-70
2022/05/25 13:14:18;;;;;;;2.83;2.63;;;12.00;99.90;;;;;;5054898;28;20108;-73
2022/05/25 13:16:51;;;;;;;4.90;3.15;;;12.00;99.90;;;;;;5054853;28;20017;-69
2022/05/25 13:19:29;;;;;;;;;;;12.00;99.90;;;;;;5055058;28;20045;-72